sensor_id;sensor_type;location;lat;lon;timestamp;P1;durP1;ratioP1;P2;durP2;ratioP2
74920;SDS011;63483;47.384;8.860;2023-02-25T00:00:20;6.87;;;3.07;;
74920;SDS011;63483;47.384;8.860;2023-02-25T00:02:46;5.50;;;2.90;;
74920;SDS011;63483;47.384;8.860;2023-02-25T00:05:13;6.97;;;2.85;;
74920;SDS011;63483;47.384;8.860;2023-02-25T00:07:40;6.60;;;3.15;;
74920;SDS011;63483;47.384;8.860;2023-02-25T00:10:06;7.00;;;2.90;;
74920;SDS011;63483;47.384;8.860;2023-02-25T00:12:33;4.85;;;2.50;;
74920;SDS011;63483;47.384;8.860;2023-02-25T00:14:58;6.57;;;2.70;;
74920;SDS011;63483;47.384;8.860;2023-02-25T00:17:24;4.87;;;2.57;;
74920;SDS011;63483;47.384;8.860;2023-02-25T00:19:49;7.30;;;2.80;;
74920;SDS011;63483;47.384;8.860;2023-02-25T00:22:15;5.77;;;2.53;;
74920;SDS011;63483;47.384;8.860;2023-02-25T00:24:40;5.60;;;2.13;;
74920;SDS011;63483;47.384;8.860;2023-02-25T00:27:06;4.73;;;2.13;;
74920;SDS011;63483;47.384;8.860;2023-02-25T00:29:32;5.90;;;2.20;;
74920;SDS011;63483;47.384;8.860;2023-02-25T00:31:57;4.07;;;1.80;;
74920;SDS011;63483;47.384;8.860;2023-02-25T00:34:22;4.47;;;2.50;;
74920;SDS011;63483;47.384;8.860;2023-02-25T00:36:48;5.67;;;3.07;;
74920;SDS011;63483;47.384;8.860;2023-02-25T00:39:14;9.95;;;2.92;;
74920;SDS011;63483;47.384;8.860;2023-02-25T00:41:39;3.17;;;1.67;;
74920;SDS011;63483;47.384;8.860;2023-02-25T00:44:04;1.93;;;0.70;;
74920;SDS011;63483;47.384;8.860;2023-02-25T00:46:31;2.38;;;0.85;;
74920;SDS011;63483;47.384;8.860;2023-02-25T00:48:57;2.30;;;1.20;;
74920;SDS011;63483;47.384;8.860;2023-02-25T00:51:27;1.97;;;0.60;;
74920;SDS011;63483;47.384;8.860;2023-02-25T00:53:55;2.38;;;0.82;;
74920;SDS011;63483;47.384;8.860;2023-02-25T00:56:22;1.95;;;1.00;;
74920;SDS011;63483;47.384;8.860;2023-02-25T00:58:49;1.83;;;0.98;;
74920;SDS011;63483;47.384;8.860;2023-02-25T01:03:42;3.77;;;1.20;;
74920;SDS011;63483;47.384;8.860;2023-02-25T01:06:08;2.30;;;0.95;;
74920;SDS011;63483;47.384;8.860;2023-02-25T01:08:34;3.10;;;1.30;;
74920;SDS011;63483;47.384;8.860;2023-02-25T01:11:00;1.83;;;0.98;;
74920;SDS011;63483;47.384;8.860;2023-02-25T01:13:57;2.03;;;0.95;;
74920;SDS011;63483;47.384;8.860;2023-02-25T01:16:26;2.80;;;1.33;;
74920;SDS011;63483;47.384;8.860;2023-02-25T01:18:54;2.35;;;0.70;;
74920;SDS011;63483;47.384;8.860;2023-02-25T01:21:26;2.15;;;0.82;;
74920;SDS011;63483;47.384;8.860;2023-02-25T01:23:59;2.08;;;1.02;;
74920;SDS011;63483;47.384;8.860;2023-02-25T01:26:29;2.08;;;1.00;;
74920;SDS011;63483;47.384;8.860;2023-02-25T01:28:56;3.10;;;1.27;;
74920;SDS011;63483;47.384;8.860;2023-02-25T01:31:21;2.50;;;1.30;;
74920;SDS011;63483;47.384;8.860;2023-02-25T01:33:51;2.70;;;0.80;;
74920;SDS011;63483;47.384;8.860;2023-02-25T01:36:17;2.30;;;1.30;;
74920;SDS011;63483;47.384;8.860;2023-02-25T01:38:43;4.10;;;1.30;;
74920;SDS011;63483;47.384;8.860;2023-02-25T01:41:08;2.07;;;1.00;;
74920;SDS011;63483;47.384;8.860;2023-02-25T01:43:34;2.20;;;1.20;;
74920;SDS011;63483;47.384;8.860;2023-02-25T01:46:00;2.50;;;1.48;;
74920;SDS011;63483;47.384;8.860;2023-02-25T01:48:30;2.90;;;1.40;;
74920;SDS011;63483;47.384;8.860;2023-02-25T01:51:02;4.13;;;1.52;;
74920;SDS011;63483;47.384;8.860;2023-02-25T01:53:41;2.55;;;1.30;;
74920;SDS011;63483;47.384;8.860;2023-02-25T01:56:11;2.90;;;1.35;;
74920;SDS011;63483;47.384;8.860;2023-02-25T01:58:41;3.50;;;1.30;;
74920;SDS011;63483;47.384;8.860;2023-02-25T02:01:10;3.43;;;1.40;;
74920;SDS011;63483;47.384;8.860;2023-02-25T02:03:38;3.42;;;1.63;;
74920;SDS011;63483;47.384;8.860;2023-02-25T02:08:39;3.10;;;1.58;;
74920;SDS011;63483;47.384;8.860;2023-02-25T02:11:07;3.72;;;1.70;;
74920;SDS011;63483;47.384;8.860;2023-02-25T02:13:34;3.77;;;1.70;;
74920;SDS011;63483;47.384;8.860;2023-02-25T02:18:51;3.08;;;1.30;;
74920;SDS011;63483;47.384;8.860;2023-02-25T02:21:31;3.47;;;1.93;;
74920;SDS011;63483;47.384;8.860;2023-02-25T02:27:09;3.47;;;1.65;;
74920;SDS011;63483;47.384;8.860;2023-02-25T02:32:19;3.63;;;1.70;;
74920;SDS011;63483;47.384;8.860;2023-02-25T02:34:51;3.50;;;1.60;;
74920;SDS011;63483;47.384;8.860;2023-02-25T02:40:43;2.75;;;1.27;;
74920;SDS011;63483;47.384;8.860;2023-02-25T02:43:26;3.35;;;1.90;;
74920;SDS011;63483;47.384;8.860;2023-02-25T02:51:24;3.90;;;2.08;;
74920;SDS011;63483;47.384;8.860;2023-02-25T02:53:55;2.75;;;1.20;;
74920;SDS011;63483;47.384;8.860;2023-02-25T02:56:24;2.90;;;1.40;;
74920;SDS011;63483;47.384;8.860;2023-02-25T02:58:56;2.95;;;1.30;;
74920;SDS011;63483;47.384;8.860;2023-02-25T03:01:31;2.20;;;1.23;;
74920;SDS011;63483;47.384;8.860;2023-02-25T03:04:02;1.90;;;0.85;;
74920;SDS011;63483;47.384;8.860;2023-02-25T03:06:33;3.00;;;1.55;;
74920;SDS011;63483;47.384;8.860;2023-02-25T03:09:14;2.63;;;1.42;;
74920;SDS011;63483;47.384;8.860;2023-02-25T03:11:42;2.92;;;1.40;;
74920;SDS011;63483;47.384;8.860;2023-02-25T03:14:09;2.47;;;1.00;;
74920;SDS011;63483;47.384;8.860;2023-02-25T03:19:59;3.27;;;1.53;;
74920;SDS011;63483;47.384;8.860;2023-02-25T03:22:03;4.88;;;1.88;;
74920;SDS011;63483;47.384;8.860;2023-02-25T03:24:49;3.65;;;1.65;;
74920;SDS011;63483;47.384;8.860;2023-02-25T03:27:29;4.35;;;2.63;;
74920;SDS011;63483;47.384;8.860;2023-02-25T03:32:47;5.20;;;2.60;;
74920;SDS011;63483;47.384;8.860;2023-02-25T03:35:19;6.50;;;2.75;;
74920;SDS011;63483;47.384;8.860;2023-02-25T03:37:47;5.82;;;2.10;;
74920;SDS011;63483;47.384;8.860;2023-02-25T03:40:17;7.00;;;3.20;;
74920;SDS011;63483;47.384;8.860;2023-02-25T03:42:47;6.63;;;3.03;;
74920;SDS011;63483;47.384;8.860;2023-02-25T03:45:17;6.77;;;2.33;;
74920;SDS011;63483;47.384;8.860;2023-02-25T03:47:44;7.30;;;3.70;;
74920;SDS011;63483;47.384;8.860;2023-02-25T03:50:14;5.63;;;2.70;;
74920;SDS011;63483;47.384;8.860;2023-02-25T03:52:52;6.80;;;2.57;;
74920;SDS011;63483;47.384;8.860;2023-02-25T03:55:17;6.30;;;2.63;;
74920;SDS011;63483;47.384;8.860;2023-02-25T03:57:44;6.80;;;2.77;;
74920;SDS011;63483;47.384;8.860;2023-02-25T04:00:15;8.00;;;2.67;;
74920;SDS011;63483;47.384;8.860;2023-02-25T04:02:46;6.80;;;2.83;;
74920;SDS011;63483;47.384;8.860;2023-02-25T04:05:13;6.55;;;2.45;;
74920;SDS011;63483;47.384;8.860;2023-02-25T04:07:40;6.28;;;2.65;;
74920;SDS011;63483;47.384;8.860;2023-02-25T04:10:06;5.30;;;2.90;;
74920;SDS011;63483;47.384;8.860;2023-02-25T04:12:33;6.88;;;3.15;;
74920;SDS011;63483;47.384;8.860;2023-02-25T04:14:58;5.80;;;3.00;;
74920;SDS011;63483;47.384;8.860;2023-02-25T04:17:23;5.67;;;2.50;;
74920;SDS011;63483;47.384;8.860;2023-02-25T04:19:49;6.03;;;2.75;;
74920;SDS011;63483;47.384;8.860;2023-02-25T04:22:15;6.43;;;3.03;;
74920;SDS011;63483;47.384;8.860;2023-02-25T04:24:40;6.03;;;3.07;;
74920;SDS011;63483;47.384;8.860;2023-02-25T04:27:05;4.83;;;2.40;;
74920;SDS011;63483;47.384;8.860;2023-02-25T04:29:31;7.70;;;3.03;;
74920;SDS011;63483;47.384;8.860;2023-02-25T04:31:56;5.40;;;2.60;;
74920;SDS011;63483;47.384;8.860;2023-02-25T04:34:22;6.43;;;2.40;;
74920;SDS011;63483;47.384;8.860;2023-02-25T04:36:47;4.80;;;1.93;;
74920;SDS011;63483;47.384;8.860;2023-02-25T04:39:13;4.03;;;2.10;;
74920;SDS011;63483;47.384;8.860;2023-02-25T04:41:41;3.47;;;1.77;;
74920;SDS011;63483;47.384;8.860;2023-02-25T04:44:06;3.42;;;1.73;;
74920;SDS011;63483;47.384;8.860;2023-02-25T04:46:34;5.60;;;1.40;;
74920;SDS011;63483;47.384;8.860;2023-02-25T04:49:01;3.45;;;1.60;;
74920;SDS011;63483;47.384;8.860;2023-02-25T04:51:27;3.33;;;1.80;;
74920;SDS011;63483;47.384;8.860;2023-02-25T04:53:52;3.43;;;1.60;;
74920;SDS011;63483;47.384;8.860;2023-02-25T04:56:18;2.70;;;1.83;;
74920;SDS011;63483;47.384;8.860;2023-02-25T04:58:43;3.23;;;1.63;;
74920;SDS011;63483;47.384;8.860;2023-02-25T05:01:09;3.33;;;1.77;;
74920;SDS011;63483;47.384;8.860;2023-02-25T05:03:36;3.25;;;2.03;;
74920;SDS011;63483;47.384;8.860;2023-02-25T05:06:02;3.45;;;1.65;;
74920;SDS011;63483;47.384;8.860;2023-02-25T05:08:28;2.75;;;1.45;;
74920;SDS011;63483;47.384;8.860;2023-02-25T05:10:54;4.20;;;1.67;;
74920;SDS011;63483;47.384;8.860;2023-02-25T05:13:20;3.47;;;1.67;;
74920;SDS011;63483;47.384;8.860;2023-02-25T05:15:46;2.93;;;1.47;;
74920;SDS011;63483;47.384;8.860;2023-02-25T05:18:11;2.45;;;1.10;;
74920;SDS011;63483;47.384;8.860;2023-02-25T05:20:40;2.03;;;1.00;;
74920;SDS011;63483;47.384;8.860;2023-02-25T05:23:07;4.97;;;1.38;;
74920;SDS011;63483;47.384;8.860;2023-02-25T05:25:33;2.67;;;1.50;;
74920;SDS011;63483;47.384;8.860;2023-02-25T05:27:58;2.50;;;1.37;;
74920;SDS011;63483;47.384;8.860;2023-02-25T05:30:24;3.63;;;1.90;;
74920;SDS011;63483;47.384;8.860;2023-02-25T05:32:50;2.73;;;1.40;;
74920;SDS011;63483;47.384;8.860;2023-02-25T05:35:15;2.87;;;1.37;;
74920;SDS011;63483;47.384;8.860;2023-02-25T05:37:40;2.97;;;1.10;;
74920;SDS011;63483;47.384;8.860;2023-02-25T05:40:06;3.03;;;1.40;;
74920;SDS011;63483;47.384;8.860;2023-02-25T05:42:33;2.75;;;1.40;;
74920;SDS011;63483;47.384;8.860;2023-02-25T05:44:59;3.13;;;1.90;;
74920;SDS011;63483;47.384;8.860;2023-02-25T05:47:24;4.05;;;1.52;;
74920;SDS011;63483;47.384;8.860;2023-02-25T05:49:51;4.03;;;1.50;;
74920;SDS011;63483;47.384;8.860;2023-02-25T05:52:16;2.83;;;1.27;;
74920;SDS011;63483;47.384;8.860;2023-02-25T05:54:41;3.92;;;1.15;;
74920;SDS011;63483;47.384;8.860;2023-02-25T05:57:07;3.40;;;1.20;;
74920;SDS011;63483;47.384;8.860;2023-02-25T05:59:32;3.37;;;1.57;;
74920;SDS011;63483;47.384;8.860;2023-02-25T06:01:58;4.63;;;2.00;;
74920;SDS011;63483;47.384;8.860;2023-02-25T06:04:23;3.47;;;1.52;;
74920;SDS011;63483;47.384;8.860;2023-02-25T06:06:49;3.13;;;1.73;;
74920;SDS011;63483;47.384;8.860;2023-02-25T06:09:18;3.43;;;1.50;;
74920;SDS011;63483;47.384;8.860;2023-02-25T06:11:44;2.97;;;1.38;;
74920;SDS011;63483;47.384;8.860;2023-02-25T06:14:11;3.30;;;1.17;;
74920;SDS011;63483;47.384;8.860;2023-02-25T06:16:37;5.43;;;1.97;;
74920;SDS011;63483;47.384;8.860;2023-02-25T06:19:03;60.90;;;11.10;;
74920;SDS011;63483;47.384;8.860;2023-02-25T06:21:31;73.30;;;13.57;;
74920;SDS011;63483;47.384;8.860;2023-02-25T06:23:58;47.80;;;10.10;;
74920;SDS011;63483;47.384;8.860;2023-02-25T06:26:24;54.75;;;10.52;;
74920;SDS011;63483;47.384;8.860;2023-02-25T06:28:50;11.33;;;3.67;;
74920;SDS011;63483;47.384;8.860;2023-02-25T06:31:16;8.52;;;3.85;;
74920;SDS011;63483;47.384;8.860;2023-02-25T06:33:42;6.83;;;2.90;;
74920;SDS011;63483;47.384;8.860;2023-02-25T06:36:09;8.48;;;2.95;;
74920;SDS011;63483;47.384;8.860;2023-02-25T06:38:36;6.47;;;2.95;;
74920;SDS011;63483;47.384;8.860;2023-02-25T06:41:06;7.13;;;2.70;;
74920;SDS011;63483;47.384;8.860;2023-02-25T06:43:32;5.82;;;2.90;;
74920;SDS011;63483;47.384;8.860;2023-02-25T06:45:58;7.07;;;3.15;;
74920;SDS011;63483;47.384;8.860;2023-02-25T06:48:27;5.80;;;3.38;;
74920;SDS011;63483;47.384;8.860;2023-02-25T06:50:52;4.80;;;2.67;;
74920;SDS011;63483;47.384;8.860;2023-02-25T06:53:17;4.73;;;2.20;;
74920;SDS011;63483;47.384;8.860;2023-02-25T06:55:43;3.33;;;2.07;;
74920;SDS011;63483;47.384;8.860;2023-02-25T06:58:08;4.20;;;1.80;;
74920;SDS011;63483;47.384;8.860;2023-02-25T07:00:33;3.63;;;1.80;;
74920;SDS011;63483;47.384;8.860;2023-02-25T07:02:59;3.37;;;1.27;;
74920;SDS011;63483;47.384;8.860;2023-02-25T07:05:26;3.30;;;2.00;;
74920;SDS011;63483;47.384;8.860;2023-02-25T07:07:52;4.87;;;2.20;;
74920;SDS011;63483;47.384;8.860;2023-02-25T07:10:17;3.43;;;1.73;;
74920;SDS011;63483;47.384;8.860;2023-02-25T07:12:43;3.73;;;1.87;;
74920;SDS011;63483;47.384;8.860;2023-02-25T07:15:08;3.15;;;1.60;;
74920;SDS011;63483;47.384;8.860;2023-02-25T07:17:33;4.30;;;1.70;;
74920;SDS011;63483;47.384;8.860;2023-02-25T07:19:59;4.30;;;2.30;;
74920;SDS011;63483;47.384;8.860;2023-02-25T07:22:24;3.60;;;1.60;;
74920;SDS011;63483;47.384;8.860;2023-02-25T07:24:50;4.83;;;2.13;;
74920;SDS011;63483;47.384;8.860;2023-02-25T07:27:15;4.53;;;2.47;;
74920;SDS011;63483;47.384;8.860;2023-02-25T07:29:40;5.03;;;3.00;;
74920;SDS011;63483;47.384;8.860;2023-02-25T07:32:06;4.23;;;2.23;;
74920;SDS011;63483;47.384;8.860;2023-02-25T07:34:33;5.30;;;2.83;;
74920;SDS011;63483;47.384;8.860;2023-02-25T07:36:58;4.47;;;2.57;;
74920;SDS011;63483;47.384;8.860;2023-02-25T07:39:24;5.45;;;3.00;;
74920;SDS011;63483;47.384;8.860;2023-02-25T07:41:49;5.00;;;2.87;;
74920;SDS011;63483;47.384;8.860;2023-02-25T07:44:14;7.10;;;2.77;;
74920;SDS011;63483;47.384;8.860;2023-02-25T07:46:40;5.90;;;2.40;;
74920;SDS011;63483;47.384;8.860;2023-02-25T07:49:06;7.17;;;3.40;;
74920;SDS011;63483;47.384;8.860;2023-02-25T07:51:32;6.90;;;2.63;;
74920;SDS011;63483;47.384;8.860;2023-02-25T07:53:58;7.28;;;3.22;;
74920;SDS011;63483;47.384;8.860;2023-02-25T07:56:25;7.25;;;3.67;;
74920;SDS011;63483;47.384;8.860;2023-02-25T07:58:52;6.35;;;3.42;;
74920;SDS011;63483;47.384;8.860;2023-02-25T08:03:50;7.25;;;3.38;;
74920;SDS011;63483;47.384;8.860;2023-02-25T08:06:17;8.83;;;3.93;;
74920;SDS011;63483;47.384;8.860;2023-02-25T08:08:42;8.65;;;4.07;;
74920;SDS011;63483;47.384;8.860;2023-02-25T08:11:09;6.20;;;3.13;;
74920;SDS011;63483;47.384;8.860;2023-02-25T08:13:36;6.25;;;3.15;;
74920;SDS011;63483;47.384;8.860;2023-02-25T08:16:06;7.28;;;3.83;;
74920;SDS011;63483;47.384;8.860;2023-02-25T08:18:33;6.57;;;3.35;;
74920;SDS011;63483;47.384;8.860;2023-02-25T08:20:58;7.80;;;3.57;;
74920;SDS011;63483;47.384;8.860;2023-02-25T08:23:24;7.20;;;3.93;;
74920;SDS011;63483;47.384;8.860;2023-02-25T08:25:53;9.93;;;5.07;;
74920;SDS011;63483;47.384;8.860;2023-02-25T08:28:23;9.73;;;4.33;;
74920;SDS011;63483;47.384;8.860;2023-02-25T08:30:50;7.18;;;3.88;;
74920;SDS011;63483;47.384;8.860;2023-02-25T08:33:15;8.63;;;3.77;;
74920;SDS011;63483;47.384;8.860;2023-02-25T08:35:42;12.05;;;6.85;;
74920;SDS011;63483;47.384;8.860;2023-02-25T08:38:07;10.32;;;5.53;;
74920;SDS011;63483;47.384;8.860;2023-02-25T08:40:34;8.85;;;4.13;;
74920;SDS011;63483;47.384;8.860;2023-02-25T08:42:59;11.30;;;5.00;;
74920;SDS011;63483;47.384;8.860;2023-02-25T08:45:24;9.70;;;5.20;;
74920;SDS011;63483;47.384;8.860;2023-02-25T08:47:50;8.53;;;4.77;;
74920;SDS011;63483;47.384;8.860;2023-02-25T08:50:15;8.47;;;4.13;;
74920;SDS011;63483;47.384;8.860;2023-02-25T08:52:41;7.43;;;4.05;;
74920;SDS011;63483;47.384;8.860;2023-02-25T08:55:07;7.83;;;4.00;;
74920;SDS011;63483;47.384;8.860;2023-02-25T08:57:33;8.70;;;4.63;;
74920;SDS011;63483;47.384;8.860;2023-02-25T08:59:58;7.77;;;3.67;;
74920;SDS011;63483;47.384;8.860;2023-02-25T09:02:23;8.33;;;3.77;;
74920;SDS011;63483;47.384;8.860;2023-02-25T09:04:49;11.17;;;4.77;;
74920;SDS011;63483;47.384;8.860;2023-02-25T09:07:14;7.80;;;4.30;;
74920;SDS011;63483;47.384;8.860;2023-02-25T09:09:40;8.23;;;4.10;;
74920;SDS011;63483;47.384;8.860;2023-02-25T09:12:06;9.00;;;3.95;;
74920;SDS011;63483;47.384;8.860;2023-02-25T09:14:32;9.65;;;4.55;;
74920;SDS011;63483;47.384;8.860;2023-02-25T09:17:00;10.90;;;4.53;;
74920;SDS011;63483;47.384;8.860;2023-02-25T09:19:27;10.40;;;5.23;;
74920;SDS011;63483;47.384;8.860;2023-02-25T09:21:53;10.23;;;4.78;;
74920;SDS011;63483;47.384;8.860;2023-02-25T09:24:18;8.73;;;4.00;;
74920;SDS011;63483;47.384;8.860;2023-02-25T09:26:44;11.03;;;6.13;;
74920;SDS011;63483;47.384;8.860;2023-02-25T09:29:09;9.43;;;5.28;;
74920;SDS011;63483;47.384;8.860;2023-02-25T09:31:35;10.10;;;4.73;;
74920;SDS011;63483;47.384;8.860;2023-02-25T09:34:02;9.82;;;5.38;;
74920;SDS011;63483;47.384;8.860;2023-02-25T09:36:29;8.93;;;4.97;;
74920;SDS011;63483;47.384;8.860;2023-02-25T09:38:55;8.38;;;4.47;;
74920;SDS011;63483;47.384;8.860;2023-02-25T09:43:53;7.60;;;4.13;;
74920;SDS011;63483;47.384;8.860;2023-02-25T09:46:24;11.43;;;5.53;;
74920;SDS011;63483;47.384;8.860;2023-02-25T09:48:54;9.13;;;4.65;;
74920;SDS011;63483;47.384;8.860;2023-02-25T09:51:27;10.52;;;4.93;;
74920;SDS011;63483;47.384;8.860;2023-02-25T09:54:05;10.53;;;4.00;;
74920;SDS011;63483;47.384;8.860;2023-02-25T09:56:42;8.60;;;4.60;;
74920;SDS011;63483;47.384;8.860;2023-02-25T09:59:12;10.30;;;3.80;;
74920;SDS011;63483;47.384;8.860;2023-02-25T10:01:41;10.15;;;5.13;;
74920;SDS011;63483;47.384;8.860;2023-02-25T10:04:36;11.55;;;5.50;;
74920;SDS011;63483;47.384;8.860;2023-02-25T10:07:14;8.90;;;5.68;;
74920;SDS011;63483;47.384;8.860;2023-02-25T10:09:52;11.35;;;4.78;;
74920;SDS011;63483;47.384;8.860;2023-02-25T10:12:33;7.67;;;4.07;;
74920;SDS011;63483;47.384;8.860;2023-02-25T10:15:03;10.27;;;5.13;;
74920;SDS011;63483;47.384;8.860;2023-02-25T10:26:24;9.70;;;5.53;;
74920;SDS011;63483;47.384;8.860;2023-02-25T10:28:59;11.68;;;5.13;;
74920;SDS011;63483;47.384;8.860;2023-02-25T10:31:29;10.32;;;5.05;;
74920;SDS011;63483;47.384;8.860;2023-02-25T10:33:56;8.95;;;5.10;;
74920;SDS011;63483;47.384;8.860;2023-02-25T10:36:35;8.57;;;4.45;;
74920;SDS011;63483;47.384;8.860;2023-02-25T10:39:07;8.67;;;4.50;;
74920;SDS011;63483;47.384;8.860;2023-02-25T10:41:35;12.20;;;4.75;;
74920;SDS011;63483;47.384;8.860;2023-02-25T10:44:00;7.25;;;5.13;;
74920;SDS011;63483;47.384;8.860;2023-02-25T10:46:40;11.87;;;5.37;;
74920;SDS011;63483;47.384;8.860;2023-02-25T10:49:15;10.40;;;5.30;;
74920;SDS011;63483;47.384;8.860;2023-02-25T10:54:32;10.23;;;4.65;;
74920;SDS011;63483;47.384;8.860;2023-02-25T10:57:00;9.32;;;4.75;;
74920;SDS011;63483;47.384;8.860;2023-02-25T10:59:38;11.57;;;4.95;;
74920;SDS011;63483;47.384;8.860;2023-02-25T11:04:50;8.43;;;5.20;;
74920;SDS011;63483;47.384;8.860;2023-02-25T11:10:16;8.15;;;4.15;;
74920;SDS011;63483;47.384;8.860;2023-02-25T11:12:46;11.77;;;4.57;;
74920;SDS011;63483;47.384;8.860;2023-02-25T11:17:54;9.73;;;4.30;;
74920;SDS011;63483;47.384;8.860;2023-02-25T11:20:26;8.98;;;4.70;;
74920;SDS011;63483;47.384;8.860;2023-02-25T11:22:56;10.38;;;4.88;;
74920;SDS011;63483;47.384;8.860;2023-02-25T11:25:42;11.65;;;4.47;;
74920;SDS011;63483;47.384;8.860;2023-02-25T11:28:24;11.43;;;5.20;;
74920;SDS011;63483;47.384;8.860;2023-02-25T11:30:54;8.97;;;4.53;;
74920;SDS011;63483;47.384;8.860;2023-02-25T11:33:31;10.05;;;4.68;;
74920;SDS011;63483;47.384;8.860;2023-02-25T11:35:59;11.75;;;4.72;;
74920;SDS011;63483;47.384;8.860;2023-02-25T11:38:27;8.60;;;4.07;;
74920;SDS011;63483;47.384;8.860;2023-02-25T11:40:56;10.35;;;5.05;;
74920;SDS011;63483;47.384;8.860;2023-02-25T11:43:26;10.33;;;5.27;;
74920;SDS011;63483;47.384;8.860;2023-02-25T11:46:09;8.88;;;5.07;;
74920;SDS011;63483;47.384;8.860;2023-02-25T11:48:53;9.30;;;5.37;;
74920;SDS011;63483;47.384;8.860;2023-02-25T11:51:25;9.80;;;5.88;;
74920;SDS011;63483;47.384;8.860;2023-02-25T11:57:11;10.63;;;6.03;;
74920;SDS011;63483;47.384;8.860;2023-02-25T11:59:50;11.93;;;6.28;;
74920;SDS011;63483;47.384;8.860;2023-02-25T12:02:46;7.83;;;4.80;;
74920;SDS011;63483;47.384;8.860;2023-02-25T12:11:18;12.25;;;6.07;;
74920;SDS011;63483;47.384;8.860;2023-02-25T12:31:02;9.13;;;5.20;;
74920;SDS011;63483;47.384;8.860;2023-02-25T12:39:15;8.38;;;4.97;;
74920;SDS011;63483;47.384;8.860;2023-02-25T12:47:38;10.32;;;5.78;;
74920;SDS011;63483;47.384;8.860;2023-02-25T13:04:06;8.10;;;4.50;;
74920;SDS011;63483;47.384;8.860;2023-02-25T13:09:48;8.30;;;4.50;;
74920;SDS011;63483;47.384;8.860;2023-02-25T13:15:02;8.57;;;4.40;;
74920;SDS011;63483;47.384;8.860;2023-02-25T13:17:59;8.18;;;5.15;;
74920;SDS011;63483;47.384;8.860;2023-02-25T13:20:46;8.00;;;3.83;;
74920;SDS011;63483;47.384;8.860;2023-02-25T13:26:16;8.10;;;3.37;;
74920;SDS011;63483;47.384;8.860;2023-02-25T13:32:22;7.05;;;3.40;;
74920;SDS011;63483;47.384;8.860;2023-02-25T13:43:20;6.90;;;3.45;;
74920;SDS011;63483;47.384;8.860;2023-02-25T13:48:41;10.73;;;3.80;;
74920;SDS011;63483;47.384;8.860;2023-02-25T13:57:04;8.90;;;3.63;;
74920;SDS011;63483;47.384;8.860;2023-02-25T13:59:37;7.95;;;4.05;;
74920;SDS011;63483;47.384;8.860;2023-02-25T14:02:23;4.82;;;2.38;;
74920;SDS011;63483;47.384;8.860;2023-02-25T14:07:37;6.07;;;3.17;;
74920;SDS011;63483;47.384;8.860;2023-02-25T14:10:17;5.65;;;3.10;;
74920;SDS011;63483;47.384;8.860;2023-02-25T14:23:42;6.22;;;2.60;;
74920;SDS011;63483;47.384;8.860;2023-02-25T14:26:22;8.25;;;3.28;;
74920;SDS011;63483;47.384;8.860;2023-02-25T14:29:11;5.82;;;3.05;;
74920;SDS011;63483;47.384;8.860;2023-02-25T14:31:54;7.30;;;3.28;;
74920;SDS011;63483;47.384;8.860;2023-02-25T14:34:44;5.60;;;3.70;;
74920;SDS011;63483;47.384;8.860;2023-02-25T14:45:36;5.22;;;2.83;;
74920;SDS011;63483;47.384;8.860;2023-02-25T14:55:57;6.75;;;3.30;;
74920;SDS011;63483;47.384;8.860;2023-02-25T15:01:00;4.22;;;2.25;;
74920;SDS011;63483;47.384;8.860;2023-02-25T15:09:55;4.45;;;2.47;;
74920;SDS011;63483;47.384;8.860;2023-02-25T15:12:14;4.05;;;1.92;;
74920;SDS011;63483;47.384;8.860;2023-02-25T15:17:52;6.50;;;3.03;;
74920;SDS011;63483;47.384;8.860;2023-02-25T15:20:56;3.80;;;2.28;;
74920;SDS011;63483;47.384;8.860;2023-02-25T15:23:21;6.35;;;2.33;;
74920;SDS011;63483;47.384;8.860;2023-02-25T15:26:25;5.00;;;2.67;;
74920;SDS011;63483;47.384;8.860;2023-02-25T15:29:02;4.30;;;2.63;;
74920;SDS011;63483;47.384;8.860;2023-02-25T15:31:29;4.68;;;2.58;;
74920;SDS011;63483;47.384;8.860;2023-02-25T15:34:23;5.47;;;2.30;;
74920;SDS011;63483;47.384;8.860;2023-02-25T15:37:16;5.82;;;2.28;;
74920;SDS011;63483;47.384;8.860;2023-02-25T15:39:46;6.15;;;1.98;;
74920;SDS011;63483;47.384;8.860;2023-02-25T15:42:13;4.13;;;2.43;;
74920;SDS011;63483;47.384;8.860;2023-02-25T15:44:39;4.75;;;1.90;;
74920;SDS011;63483;47.384;8.860;2023-02-25T15:47:10;5.88;;;2.83;;
74920;SDS011;63483;47.384;8.860;2023-02-25T15:49:46;8.32;;;3.47;;
74920;SDS011;63483;47.384;8.860;2023-02-25T15:52:13;15.32;;;7.43;;
74920;SDS011;63483;47.384;8.860;2023-02-25T15:55:14;5.53;;;3.20;;
74920;SDS011;63483;47.384;8.860;2023-02-25T15:57:44;4.97;;;2.65;;
74920;SDS011;63483;47.384;8.860;2023-02-25T16:03:23;4.77;;;2.33;;
74920;SDS011;63483;47.384;8.860;2023-02-25T16:06:04;4.95;;;2.40;;
74920;SDS011;63483;47.384;8.860;2023-02-25T16:11:52;5.18;;;2.50;;
74920;SDS011;63483;47.384;8.860;2023-02-25T16:14:26;5.55;;;2.05;;
74920;SDS011;63483;47.384;8.860;2023-02-25T16:16:55;5.07;;;2.17;;
74920;SDS011;63483;47.384;8.860;2023-02-25T16:19:24;5.22;;;2.38;;
74920;SDS011;63483;47.384;8.860;2023-02-25T16:21:56;6.25;;;3.50;;
74920;SDS011;63483;47.384;8.860;2023-02-25T16:24:25;6.78;;;2.92;;
74920;SDS011;63483;47.384;8.860;2023-02-25T16:36:04;4.40;;;2.00;;
74920;SDS011;63483;47.384;8.860;2023-02-25T16:38:29;5.10;;;1.98;;
74920;SDS011;63483;47.384;8.860;2023-02-25T16:40:57;5.03;;;2.17;;
74920;SDS011;63483;47.384;8.860;2023-02-25T16:43:27;5.40;;;2.43;;
74920;SDS011;63483;47.384;8.860;2023-02-25T16:45:56;6.00;;;1.77;;
74920;SDS011;63483;47.384;8.860;2023-02-25T16:48:27;3.80;;;2.45;;
74920;SDS011;63483;47.384;8.860;2023-02-25T16:50:56;5.05;;;2.00;;
74920;SDS011;63483;47.384;8.860;2023-02-25T16:53:44;4.03;;;2.08;;
74920;SDS011;63483;47.384;8.860;2023-02-25T16:56:13;4.00;;;2.00;;
74920;SDS011;63483;47.384;8.860;2023-02-25T16:58:44;4.20;;;1.92;;
74920;SDS011;63483;47.384;8.860;2023-02-25T17:01:26;4.18;;;2.35;;
74920;SDS011;63483;47.384;8.860;2023-02-25T17:03:59;4.43;;;2.00;;
74920;SDS011;63483;47.384;8.860;2023-02-25T17:07:19;7.43;;;2.40;;
74920;SDS011;63483;47.384;8.860;2023-02-25T17:09:42;5.40;;;2.20;;
74920;SDS011;63483;47.384;8.860;2023-02-25T17:12:14;5.13;;;2.35;;
74920;SDS011;63483;47.384;8.860;2023-02-25T17:14:48;4.18;;;2.33;;
74920;SDS011;63483;47.384;8.860;2023-02-25T17:17:16;4.32;;;2.13;;
74920;SDS011;63483;47.384;8.860;2023-02-25T17:19:48;4.22;;;1.70;;
74920;SDS011;63483;47.384;8.860;2023-02-25T17:22:17;3.20;;;1.67;;
74920;SDS011;63483;47.384;8.860;2023-02-25T17:24:44;4.47;;;2.33;;
74920;SDS011;63483;47.384;8.860;2023-02-25T17:27:09;6.50;;;4.72;;
74920;SDS011;63483;47.384;8.860;2023-02-25T17:29:36;8.70;;;4.40;;
74920;SDS011;63483;47.384;8.860;2023-02-25T17:32:22;10.68;;;5.15;;
74920;SDS011;63483;47.384;8.860;2023-02-25T17:34:51;6.30;;;3.70;;
74920;SDS011;63483;47.384;8.860;2023-02-25T17:37:18;8.10;;;3.42;;
74920;SDS011;63483;47.384;8.860;2023-02-25T17:39:45;10.32;;;5.25;;
74920;SDS011;63483;47.384;8.860;2023-02-25T17:45:01;5.35;;;3.20;;
74920;SDS011;63483;47.384;8.860;2023-02-25T17:47:30;5.43;;;2.93;;
74920;SDS011;63483;47.384;8.860;2023-02-25T17:50:01;6.65;;;2.50;;
74920;SDS011;63483;47.384;8.860;2023-02-25T17:52:41;5.97;;;3.35;;
74920;SDS011;63483;47.384;8.860;2023-02-25T17:55:28;5.18;;;2.60;;
74920;SDS011;63483;47.384;8.860;2023-02-25T17:57:58;4.78;;;2.40;;
74920;SDS011;63483;47.384;8.860;2023-02-25T18:00:26;6.63;;;2.27;;
74920;SDS011;63483;47.384;8.860;2023-02-25T18:05:58;6.20;;;2.70;;
74920;SDS011;63483;47.384;8.860;2023-02-25T18:08:29;3.97;;;2.83;;
74920;SDS011;63483;47.384;8.860;2023-02-25T18:10:57;4.97;;;2.83;;
74920;SDS011;63483;47.384;8.860;2023-02-25T18:13:35;7.87;;;2.80;;
74920;SDS011;63483;47.384;8.860;2023-02-25T18:16:23;4.60;;;2.75;;
74920;SDS011;63483;47.384;8.860;2023-02-25T18:18:50;4.05;;;2.00;;